Time;durP1;ratioP1;P1;durP2;ratioP2;P2;SDS_P1;SDS_P2;PMS_P1;PMS_P2;Temp;Humidity;BMP_temperature;BMP_pressure;BME280_temperature;BME280_humidity;BME280_pressure;Samples;Min_cycle;Max_cycle;Signal;HPM_P1;HPM_P2
2022/01/16 00:04:16;;;;;;;;;89.00;67.75;;;;;;;;5096066;28;8828;-74
2022/01/16 00:06:43;;;;;;;;;90.75;70.50;;;;;;;;5096096;28;8810;-73
2022/01/16 00:09:08;;;;;;;;;85.00;61.75;;;;;;;;5095888;28;8802;-73
2022/01/16 00:11:35;;;;;;;;;92.75;71.25;;;;;;;;5095991;28;8829;-74
2022/01/16 00:14:02;;;;;;;;;87.75;66.75;;;;;;;;5082210;28;8886;-73
2022/01/16 00:16:27;;;;;;;;;87.00;67.25;;;;;;;;5082849;28;8822;-73
2022/01/16 00:18:53;;;;;;;;;97.67;71.33;;;;;;;;5095279;28;8904;-73
2022/01/16 00:21:22;;;;;;;;;86.00;67.33;;;;;;;;5096051;28;8810;-73
2022/01/16 00:23:48;;;;;;;;;91.00;66.75;;;;;;;;5095557;28;8766;-73
2022/01/16 00:26:13;;;;;;;;;98.50;73.75;;;;;;;;5095769;28;8897;-73
2022/01/16 00:28:38;;;;;;;;;95.75;75.00;;;;;;;;5095433;28;8797;-73
2022/01/16 00:31:04;;;;;;;;;96.00;77.25;;;;;;;;5095762;28;8806;-73
2022/01/16 00:33:29;;;;;;;;;99.75;78.25;;;;;;;;5095809;28;8837;-73
2022/01/16 00:35:54;;;;;;;;;76.50;58.50;;;;;;;;5095366;28;8814;-73
2022/01/16 00:38:20;;;;;;;;;84.25;60.00;;;;;;;;5095502;28;8954;-73
2022/01/16 00:40:45;;;;;;;;;75.25;57.75;;;;;;;;5095471;28;8810;-73
2022/01/16 00:43:10;;;;;;;;;92.75;70.50;;;;;;;;5095493;28;8840;-73
2022/01/16 00:45:36;;;;;;;;;86.33;66.67;;;;;;;;5094373;28;8798;-73
2022/01/16 00:48:02;;;;;;;;;86.00;64.33;;;;;;;;5095313;28;11733;-73
2022/01/16 00:50:27;;;;;;;;;91.25;68.75;;;;;;;;5095415;28;11561;-73
2022/01/16 00:52:53;;;;;;;;;88.25;66.75;;;;;;;;5093885;28;8805;-73
2022/01/16 00:55:18;;;;;;;;;96.00;73.50;;;;;;;;5095455;28;8837;-73
2022/01/16 00:57:43;;;;;;;;;87.00;67.33;;;;;;;;5095026;28;8856;-73
2022/01/16 01:00:09;;;;;;;;;84.67;62.33;;;;;;;;5095259;28;11668;-74
2022/01/16 01:02:34;;;;;;;;;79.00;64.75;;;;;;;;5095299;28;8826;-73
2022/01/16 01:05:00;;;;;;;;;82.67;67.00;;;;;;;;5093512;28;8853;-73
2022/01/16 01:07:25;;;;;;;;;83.00;63.00;;;;;;;;5093788;28;8849;-73
2022/01/16 01:09:50;;;;;;;;;70.33;57.67;;;;;;;;5093734;28;8840;-73
2022/01/16 01:12:27;;;;;;;;;84.00;64.00;;;;;;;;5094684;28;9585;-73
2022/01/16 01:15:05;;;;;;;;;85.50;67.50;;;;;;;;5081899;28;8893;-73
2022/01/16 01:17:35;;;;;;;;;95.25;68.00;;;;;;;;5094791;28;8849;-73
2022/01/16 01:20:00;;;;;;;;;76.50;56.50;;;;;;;;5094645;28;8806;-73
2022/01/16 01:22:25;;;;;;;;;95.67;73.67;;;;;;;;5094956;28;8813;-73
2022/01/16 01:24:51;;;;;;;;;82.67;63.67;;;;;;;;5094691;28;11696;-73
2022/01/16 01:27:29;;;;;;;;;86.67;63.33;;;;;;;;5094728;28;8813;-73
2022/01/16 01:30:05;;;;;;;;;78.75;60.00;;;;;;;;5093562;28;8821;-73
2022/01/16 01:32:32;;;;;;;;;76.50;59.75;;;;;;;;5094533;28;8808;-73
2022/01/16 01:34:57;;;;;;;;;71.75;56.50;;;;;;;;5094664;28;8786;-73
2022/01/16 01:37:23;;;;;;;;;86.67;68.67;;;;;;;;5094618;28;8855;-73
2022/01/16 01:39:48;;;;;;;;;93.00;66.00;;;;;;;;5094775;28;8923;-73
2022/01/16 01:42:14;;;;;;;;;85.67;65.00;;;;;;;;5094456;28;11630;-73
2022/01/16 01:52:54;;;;;;;;;83.25;64.25;;;;;;;;5094313;28;8790;-73
2022/01/16 01:55:19;;;;;;;;;86.67;68.00;;;;;;;;5094665;28;8912;-73
2022/01/16 01:57:45;;;;;;;;;94.75;73.00;;;;;;;;5093891;28;8951;-73
2022/01/16 02:00:17;;;;;;;;;92.50;69.25;;;;;;;;5094603;28;8814;-73
2022/01/16 02:03:00;;;;;;;;;83.75;62.50;;;;;;;;5093999;28;8813;-73
2022/01/16 02:05:25;;;;;;;;;89.75;68.75;;;;;;;;5092889;28;8818;-73
2022/01/16 02:07:51;;;;;;;;;65.33;47.33;;;;;;;;5093994;28;8821;-73
2022/01/16 02:10:16;;;;;;;;;64.25;47.50;;;;;;;;5092819;28;11581;-73
2022/01/16 02:12:44;;;;;;;;;82.67;63.67;;;;;;;;5091049;28;8864;-74
2022/01/16 02:29:51;;;;;;;;;94.50;73.50;;;;;;;;5093756;28;8790;-73
2022/01/16 02:31:38;;;;;;;;;103.00;77.33;;;;;;;;5093260;28;11577;-73
2022/01/16 02:36:50;;;;;;;;;102.20;82.40;;;;;;;;5093176;28;8806;-73
2022/01/16 02:39:16;;;;;;;;;103.50;81.25;;;;;;;;5094138;28;8831;-73
2022/01/16 02:41:43;;;;;;;;;91.50;70.75;;;;;;;;5093079;28;8782;-73
2022/01/16 02:44:28;;;;;;;;;85.00;65.00;;;;;;;;5093786;28;11545;-73
2022/01/16 02:46:55;;;;;;;;;95.25;70.75;;;;;;;;5091851;28;8774;-73
2022/01/16 02:49:25;;;;;;;;;95.00;74.50;;;;;;;;5092576;28;8922;-73
2022/01/16 02:51:52;;;;;;;;;97.25;73.00;;;;;;;;5091675;28;8817;-73
2022/01/16 02:54:17;;;;;;;;;90.25;71.75;;;;;;;;5093775;28;8766;-73
2022/01/16 02:56:43;;;;;;;;;99.00;71.75;;;;;;;;5092868;28;8966;-73
2022/01/16 02:59:12;;;;;;;;;80.50;62.75;;;;;;;;5093628;28;8836;-73
2022/01/16 03:01:38;;;;;;;;;47.00;39.50;;;;;;;;5093373;28;8902;-73
2022/01/16 03:04:03;;;;;;;;;53.25;45.50;;;;;;;;5093457;28;8813;-73
2022/01/16 03:06:28;;;;;;;;;83.67;64.00;;;;;;;;5093578;28;8813;-73
2022/01/16 03:08:54;;;;;;;;;82.67;64.00;;;;;;;;5093190;28;11608;-73
2022/01/16 03:13:48;;;;;;;;;69.00;51.33;;;;;;;;5081566;28;8812;-73
2022/01/16 03:16:14;;;;;;;;;85.00;63.00;;;;;;;;5090047;28;8750;-73
2022/01/16 03:24:07;;;;;;;;;78.25;63.00;;;;;;;;5090043;28;8794;-73
2022/01/16 03:26:33;;;;;;;;;87.00;65.25;;;;;;;;5093241;28;8825;-73
2022/01/16 03:28:58;;;;;;;;;97.00;77.00;;;;;;;;5091281;28;8826;-73
2022/01/16 03:31:23;;;;;;;;;97.67;76.67;;;;;;;;5093157;28;8813;-73
2022/01/16 03:33:49;;;;;;;;;99.50;76.50;;;;;;;;5092789;28;8834;-73
2022/01/16 03:36:14;;;;;;;;;91.50;70.00;;;;;;;;5092654;28;8853;-73
2022/01/16 03:38:39;;;;;;;;;98.00;75.50;;;;;;;;5093016;28;8789;-73
2022/01/16 03:41:04;;;;;;;;;100.00;82.25;;;;;;;;5092828;28;9673;-73
2022/01/16 03:43:30;;;;;;;;;83.25;63.25;;;;;;;;5092843;28;8847;-73
2022/01/16 03:45:55;;;;;;;;;89.00;68.67;;;;;;;;5092612;28;8904;-73
2022/01/16 03:48:20;;;;;;;;;97.00;72.00;;;;;;;;5092955;28;8844;-72
2022/01/16 03:50:46;;;;;;;;;79.33;63.33;;;;;;;;5092710;28;11639;-72
2022/01/16 03:53:11;;;;;;;;;92.67;71.33;;;;;;;;5093057;28;11493;-73
2022/01/16 03:55:36;;;;;;;;;68.00;56.67;;;;;;;;5094934;28;8837;-73
2022/01/16 03:58:02;;;;;;;;;77.67;56.33;;;;;;;;5095762;28;8900;-72
2022/01/16 04:00:27;;;;;;;;;71.00;48.50;;;;;;;;5094849;28;8825;-73
2022/01/16 04:02:53;;;;;;;;;67.00;52.00;;;;;;;;5095760;28;8908;-72
2022/01/16 04:05:18;;;;;;;;;68.25;44.75;;;;;;;;5094575;28;8849;-72
2022/01/16 04:07:44;;;;;;;;;64.33;49.00;;;;;;;;5095778;28;8805;-73
2022/01/16 04:10:09;;;;;;;;;78.00;62.33;;;;;;;;5095974;28;8805;-73
2022/01/16 04:12:38;;;;;;;;;74.00;60.25;;;;;;;;5094321;28;8976;-73
2022/01/16 04:17:29;;;;;;;;;61.75;49.00;;;;;;;;5095999;28;8813;-72
2022/01/16 04:19:55;;;;;;;;;92.67;72.67;;;;;;;;5095535;28;8861;-71
2022/01/16 04:22:20;;;;;;;;;76.00;59.00;;;;;;;;5095798;28;8789;-71
2022/01/16 04:24:46;;;;;;;;;86.50;64.50;;;;;;;;5095759;28;8838;-71
2022/01/16 04:27:12;;;;;;;;;82.50;62.50;;;;;;;;5094164;28;8800;-71
2022/01/16 04:29:38;;;;;;;;;91.25;68.00;;;;;;;;5095782;28;8802;-71
2022/01/16 04:32:04;;;;;;;;;91.50;69.75;;;;;;;;5095684;28;8731;-72
2022/01/16 04:34:30;;;;;;;;;90.50;69.50;;;;;;;;5094553;28;8816;-72
2022/01/16 04:36:55;;;;;;;;;82.67;64.67;;;;;;;;5093540;28;11688;-72
2022/01/16 04:39:21;;;;;;;;;84.33;62.00;;;;;;;;5095628;28;12285;-72
2022/01/16 04:44:44;;;;;;;;;82.00;63.00;;;;;;;;5094101;28;8781;-72
2022/01/16 04:47:10;;;;;;;;;100.00;73.33;;;;;;;;5087855;28;8845;-72
2022/01/16 04:49:35;;;;;;;;;83.50;61.75;;;;;;;;5095871;28;9940;-72
2022/01/16 04:52:01;;;;;;;;;92.00;72.00;;;;;;;;5094973;28;8861;-72
2022/01/16 04:54:26;;;;;;;;;83.00;63.33;;;;;;;;5094118;28;8860;-71
2022/01/16 04:56:52;;;;;;;;;76.00;56.00;;;;;;;;5094924;28;11677;-72
2022/01/16 04:59:17;;;;;;;;;75.00;58.50;;;;;;;;5093551;28;11545;-72
2022/01/16 05:01:43;;;;;;;;;95.25;72.75;;;;;;;;5095094;28;8862;-72
2022/01/16 05:04:08;;;;;;;;;93.33;69.67;;;;;;;;5095160;28;8934;-72
2022/01/16 05:06:33;;;;;;;;;89.50;69.75;;;;;;;;5092592;28;11604;-71
2022/01/16 05:08:59;;;;;;;;;83.00;60.00;;;;;;;;5095184;28;8936;-73
2022/01/16 05:11:26;;;;;;;;;76.25;56.50;;;;;;;;5094896;28;8806;-72
2022/01/16 05:16:35;;;;;;;;;78.75;63.00;;;;;;;;5093904;28;8840;-72
2022/01/16 05:19:01;;;;;;;;;75.00;52.25;;;;;;;;5094531;28;8782;-72
2022/01/16 05:21:27;;;;;;;;;86.50;65.00;;;;;;;;5094868;28;8785;-72
2022/01/16 05:23:52;;;;;;;;;89.50;71.00;;;;;;;;5094589;28;9530;-72
2022/01/16 05:26:19;;;;;;;;;93.33;72.00;;;;;;;;5093248;28;9061;-71
2022/01/16 05:28:45;;;;;;;;;100.50;76.00;;;;;;;;5094664;28;8802;-72
2022/01/16 05:31:10;;;;;;;;;91.00;70.33;;;;;;;;5094753;28;8837;-72
2022/01/16 05:33:35;;;;;;;;;103.00;77.75;;;;;;;;5093232;28;8908;-72
2022/01/16 05:36:00;;;;;;;;;81.00;66.00;;;;;;;;5094568;28;8801;-72
2022/01/16 05:38:26;;;;;;;;;92.75;67.00;;;;;;;;5089954;28;8821;-72
2022/01/16 05:40:51;;;;;;;;;100.50;77.25;;;;;;;;5092829;28;8810;-72
2022/01/16 05:43:17;;;;;;;;;98.00;74.75;;;;;;;;5093097;28;8920;-72
2022/01/16 05:45:42;;;;;;;;;103.25;78.50;;;;;;;;5094551;28;8845;-71
2022/01/16 05:48:07;;;;;;;;;98.75;76.50;;;;;;;;5093209;28;8825;-71
2022/01/16 05:50:33;;;;;;;;;121.67;106.67;;;;;;;;5094488;28;8912;-71
2022/01/16 05:52:59;;;;;;;;;135.75;129.00;;;;;;;;5089579;28;8841;-71
2022/01/16 05:55:31;;;;;;;;;118.80;97.60;;;;;;;;5092894;28;8968;-71
2022/01/16 05:57:57;;;;;;;;;139.25;128.00;;;;;;;;5093858;28;9244;-72
2022/01/16 06:00:22;;;;;;;;;115.33;100.33;;;;;;;;5094306;28;8830;-72
2022/01/16 06:02:47;;;;;;;;;129.67;117.00;;;;;;;;5093927;28;8818;-72
2022/01/16 06:05:12;;;;;;;;;125.00;115.00;;;;;;;;5094112;28;8964;-72
2022/01/16 06:07:44;;;;;;;;;120.67;111.33;;;;;;;;5093774;28;8817;-72
2022/01/16 06:10:10;;;;;;;;;109.33;98.00;;;;;;;;5092534;28;8829;-72
2022/01/16 06:12:35;;;;;;;;;108.75;83.50;;;;;;;;5092147;28;10469;-72
2022/01/16 06:15:00;;;;;;;;;117.25;102.00;;;;;;;;5081877;28;8842;-72
2022/01/16 06:17:26;;;;;;;;;103.25;84.25;;;;;;;;5093691;28;8841;-72
2022/01/16 06:19:51;;;;;;;;;107.33;86.00;;;;;;;;5093731;28;8860;-72
2022/01/16 06:22:16;;;;;;;;;102.00;78.50;;;;;;;;5093842;28;8798;-72
2022/01/16 06:24:41;;;;;;;;;101.33;80.33;;;;;;;;5093591;28;8786;-71
2022/01/16 06:27:07;;;;;;;;;95.75;75.00;;;;;;;;5093739;28;9716;-72
2022/01/16 06:29:32;;;;;;;;;100.33;78.33;;;;;;;;5094111;28;8798;-72
2022/01/16 06:31:57;;;;;;;;;98.25;77.75;;;;;;;;5090087;28;8829;-72
2022/01/16 06:34:23;;;;;;;;;94.25;70.50;;;;;;;;5093667;28;8879;-72
2022/01/16 06:36:48;;;;;;;;;93.00;76.00;;;;;;;;5092781;28;8965;-72
2022/01/16 06:39:13;;;;;;;;;95.50;74.50;;;;;;;;5092299;28;8822;-72
2022/01/16 06:41:39;;;;;;;;;95.00;71.00;;;;;;;;5093108;28;8945;-71
2022/01/16 06:44:05;;;;;;;;;95.00;71.25;;;;;;;;5093660;28;8830;-72
2022/01/16 06:46:30;;;;;;;;;101.50;77.75;;;;;;;;5093090;28;8817;-71
2022/01/16 06:48:56;;;;;;;;;95.67;72.67;;;;;;;;5092671;28;8848;-72
2022/01/16 06:51:21;;;;;;;;;98.50;74.75;;;;;;;;5093786;28;9283;-72
2022/01/16 06:53:47;;;;;;;;;102.75;82.25;;;;;;;;5093139;28;8998;-71
2022/01/16 06:56:13;;;;;;;;;84.50;66.75;;;;;;;;5092646;28;8762;-72
2022/01/16 06:58:39;;;;;;;;;67.50;52.75;;;;;;;;5092830;28;9675;-71
2022/01/16 07:01:04;;;;;;;;;73.00;51.33;;;;;;;;5093427;28;9557;-71
2022/01/16 07:03:29;;;;;;;;;93.67;70.33;;;;;;;;5093086;28;8790;-72
2022/01/16 07:05:55;;;;;;;;;91.67;71.67;;;;;;;;5092326;28;8861;-72
2022/01/16 07:08:23;;;;;;;;;96.33;71.00;;;;;;;;5091586;28;8797;-72
2022/01/16 07:10:49;;;;;;;;;91.25;67.00;;;;;;;;5092458;28;10488;-72
2022/01/16 07:13:14;;;;;;;;;59.75;47.75;;;;;;;;5093131;28;8793;-72
2022/01/16 07:15:40;;;;;;;;;86.67;68.00;;;;;;;;5089933;28;11567;-72
2022/01/16 07:18:05;;;;;;;;;75.75;62.50;;;;;;;;5090730;28;12404;-72
2022/01/16 07:20:30;;;;;;;;;81.33;65.33;;;;;;;;5084629;28;8865;-73
2022/01/16 07:22:56;;;;;;;;;72.00;56.00;;;;;;;;5092136;28;8860;-73
2022/01/16 07:25:21;;;;;;;;;77.33;61.67;;;;;;;;5093261;28;11564;-72
2022/01/16 07:27:46;;;;;;;;;88.67;70.00;;;;;;;;5091457;28;8813;-73
2022/01/16 07:30:12;;;;;;;;;89.67;68.67;;;;;;;;5091743;28;9998;-73
2022/01/16 07:32:37;;;;;;;;;94.00;75.50;;;;;;;;5096580;28;11594;-73
2022/01/16 07:35:03;;;;;;;;;79.00;62.67;;;;;;;;5096054;28;8814;-73
2022/01/16 07:37:29;;;;;;;;;75.20;62.80;;;;;;;;5085359;28;8877;-72
2022/01/16 07:39:54;;;;;;;;;83.75;64.50;;;;;;;;5096037;28;8805;-72
2022/01/16 07:42:20;;;;;;;;;80.50;63.75;;;;;;;;5090403;28;8845;-73
2022/01/16 07:44:45;;;;;;;;;78.00;63.25;;;;;;;;5096207;28;8911;-73
2022/01/16 07:47:10;;;;;;;;;87.75;69.25;;;;;;;;5095956;28;8871;-71
2022/01/16 07:49:36;;;;;;;;;97.00;81.00;;;;;;;;5094774;28;8907;-71
2022/01/16 07:52:01;;;;;;;;;99.25;83.25;;;;;;;;5095695;28;8845;-71
2022/01/16 07:54:27;;;;;;;;;118.75;103.25;;;;;;;;5096612;28;8912;-71
2022/01/16 07:56:52;;;;;;;;;129.50;118.75;;;;;;;;5093586;28;9597;-72
2022/01/16 07:59:17;;;;;;;;;126.00;116.00;;;;;;;;5095298;28;8805;-72
2022/01/16 08:01:43;;;;;;;;;130.00;120.80;;;;;;;;5095231;28;8965;-72
2022/01/16 08:04:08;;;;;;;;;130.00;118.00;;;;;;;;5095754;28;8818;-72
2022/01/16 08:06:34;;;;;;;;;147.33;140.67;;;;;;;;5095761;28;8848;-72
2022/01/16 08:08:59;;;;;;;;;143.40;137.00;;;;;;;;5095621;28;8809;-72
2022/01/16 08:11:24;;;;;;;;;224.80;217.60;;;;;;;;5095336;28;11617;-72
2022/01/16 08:13:50;;;;;;;;;220.00;217.80;;;;;;;;5094377;28;8899;-72
2022/01/16 08:16:15;;;;;;;;;207.00;205.00;;;;;;;;5095267;28;8838;-72
2022/01/16 08:18:40;;;;;;;;;252.33;248.67;;;;;;;;5095406;28;8821;-74
2022/01/16 08:21:06;;;;;;;;;281.60;274.80;;;;;;;;5091771;28;8825;-74
2022/01/16 08:23:31;;;;;;;;;264.83;261.50;;;;;;;;5093586;28;9259;-73
2022/01/16 08:25:57;;;;;;;;;295.83;291.67;;;;;;;;5094837;28;8818;-74
2022/01/16 08:28:22;;;;;;;;;298.67;289.67;;;;;;;;5095016;28;8790;-74
2022/01/16 08:30:48;;;;;;;;;344.80;342.60;;;;;;;;5094903;28;8806;-74
2022/01/16 08:33:13;;;;;;;;;347.83;343.17;;;;;;;;5095050;28;12323;-74
2022/01/16 08:35:38;;;;;;;;;330.00;323.00;;;;;;;;5094245;28;8802;-73
2022/01/16 08:38:03;;;;;;;;;301.60;300.00;;;;;;;;5089717;28;8824;-73
2022/01/16 08:40:29;;;;;;;;;315.00;313.00;;;;;;;;5090653;28;8845;-74
2022/01/16 08:42:54;;;;;;;;;327.20;319.60;;;;;;;;5095473;28;8816;-74
2022/01/16 08:45:19;;;;;;;;;402.17;394.17;;;;;;;;5094269;28;8814;-74
2022/01/16 08:47:45;;;;;;;;;341.17;337.17;;;;;;;;5091802;28;8865;-74
2022/01/16 08:50:11;;;;;;;;;374.00;364.20;;;;;;;;5101823;28;8803;-74
2022/01/16 08:52:36;;;;;;;;;484.67;475.33;;;;;;;;5094048;28;8794;-74
2022/01/16 08:55:02;;;;;;;;;367.50;365.17;;;;;;;;5092882;28;9517;-74
2022/01/16 08:57:28;;;;;;;;;470.29;468.86;;;;;;;;5096550;28;11595;-73
2022/01/16 08:59:53;;;;;;;;;443.20;439.00;;;;;;;;5097454;28;8895;-73
2022/01/16 09:02:19;;;;;;;;;472.00;469.20;;;;;;;;5094657;27;8911;-73
2022/01/16 09:04:44;;;;;;;;;324.80;319.00;;;;;;;;5094479;28;9712;-73
2022/01/16 09:07:10;;;;;;;;;376.50;364.75;;;;;;;;5089992;28;8843;-73
2022/01/16 09:09:35;;;;;;;;;325.80;322.00;;;;;;;;5094780;28;8825;-73
2022/01/16 09:12:01;;;;;;;;;179.75;177.25;;;;;;;;5093442;28;8809;-74
2022/01/16 09:14:26;;;;;;;;;129.33;120.00;;;;;;;;5092616;28;8908;-74
2022/01/16 09:16:51;;;;;;;;;142.75;135.25;;;;;;;;5091732;28;8942;-74
2022/01/16 09:19:17;;;;;;;;;104.00;87.00;;;;;;;;5093102;28;8856;-73
2022/01/16 09:21:42;;;;;;;;;109.25;98.25;;;;;;;;5092055;28;8917;-74
2022/01/16 09:24:08;;;;;;;;;111.67;94.67;;;;;;;;5094371;28;8797;-74
2022/01/16 09:26:35;;;;;;;;;79.00;60.67;;;;;;;;5094005;28;10303;-74
2022/01/16 09:29:00;;;;;;;;;92.75;72.25;;;;;;;;5093212;28;11523;-73
2022/01/16 09:31:26;;;;;;;;;86.25;69.50;;;;;;;;5091736;28;8790;-74
2022/01/16 09:33:51;;;;;;;;;53.67;42.67;;;;;;;;5094320;28;9537;-74
2022/01/16 09:36:16;;;;;;;;;12.67;8.00;;;;;;;;5091987;28;8806;-74
2022/01/16 09:38:43;;;;;;;;;20.00;16.25;;;;;;;;5086386;28;8813;-74
2022/01/16 09:41:08;;;;;;;;;25.00;13.00;;;;;;;;5092922;28;8778;-74
2022/01/16 09:43:34;;;;;;;;;49.33;43.67;;;;;;;;5091807;28;8789;-74
2022/01/16 09:45:59;;;;;;;;;55.00;47.50;;;;;;;;5091028;28;11425;-73
2022/01/16 09:48:25;;;;;;;;;48.00;42.00;;;;;;;;5094417;28;9875;-74
2022/01/16 09:50:51;;;;;;;;;15.00;11.75;;;;;;;;5093327;28;8810;-74
2022/01/16 09:53:16;;;;;;;;;39.00;34.25;;;;;;;;5092979;28;8849;-74
2022/01/16 09:55:41;;;;;;;;;59.50;46.00;;;;;;;;5093655;28;8895;-75
2022/01/16 09:58:07;;;;;;;;;71.00;56.00;;;;;;;;5094167;28;8885;-74
2022/01/16 10:00:33;;;;;;;;;66.33;54.67;;;;;;;;5093783;28;11551;-75
2022/01/16 10:02:58;;;;;;;;;67.50;56.00;;;;;;;;5093840;28;9609;-74
2022/01/16 10:05:25;;;;;;;;;72.00;58.33;;;;;;;;5093817;28;8813;-74
2022/01/16 10:07:51;;;;;;;;;74.75;62.50;;;;;;;;5092486;28;8814;-74
2022/01/16 10:10:17;;;;;;;;;63.00;54.50;;;;;;;;5093674;28;8915;-74
2022/01/16 10:12:51;;;;;;;;;77.75;63.25;;;;;;;;5093479;28;8836;-76
2022/01/16 10:15:16;;;;;;;;;70.75;58.25;;;;;;;;5093842;28;8878;-76
2022/01/16 10:17:45;;;;;;;;;76.50;60.00;;;;;;;;5093384;28;8849;-75
2022/01/16 10:20:11;;;;;;;;;65.75;54.25;;;;;;;;5093827;28;8879;-74
2022/01/16 10:22:42;;;;;;;;;77.50;62.75;;;;;;;;5093617;28;8794;-74
2022/01/16 10:25:08;;;;;;;;;74.75;61.00;;;;;;;;5093384;28;8797;-74
2022/01/16 10:27:34;;;;;;;;;69.00;56.00;;;;;;;;5094029;28;8832;-73
2022/01/16 10:30:02;;;;;;;;;79.75;65.00;;;;;;;;5093853;28;8898;-73
2022/01/16 10:32:31;;;;;;;;;88.20;72.00;;;;;;;;5093579;28;12537;-73
2022/01/16 10:35:17;;;;;;;;;81.75;67.00;;;;;;;;5093378;28;8813;-72
2022/01/16 10:37:43;;;;;;;;;82.25;65.50;;;;;;;;5093325;28;8813;-73
2022/01/16 10:40:11;;;;;;;;;84.00;69.00;;;;;;;;5093352;28;8814;-73
2022/01/16 10:42:39;;;;;;;;;73.00;59.00;;;;;;;;5093627;28;8880;-73
2022/01/16 10:45:09;;;;;;;;;67.75;54.75;;;;;;;;5093734;28;8979;-73
2022/01/16 10:47:38;;;;;;;;;75.25;60.75;;;;;;;;5089667;28;8743;-72
2022/01/16 10:50:12;;;;;;;;;79.00;63.25;;;;;;;;5080412;28;8789;-72
2022/01/16 10:52:56;;;;;;;;;84.00;66.75;;;;;;;;5091098;28;8794;-73
2022/01/16 10:55:23;;;;;;;;;81.25;64.75;;;;;;;;5093578;28;8738;-72
2022/01/16 10:57:49;;;;;;;;;81.25;66.50;;;;;;;;5091423;28;8984;-72
2022/01/16 11:00:18;;;;;;;;;83.50;66.75;;;;;;;;5093628;28;9347;-73
2022/01/16 11:02:44;;;;;;;;;84.75;66.50;;;;;;;;5093084;28;8887;-73
2022/01/16 11:05:14;;;;;;;;;82.00;67.75;;;;;;;;5093403;28;8801;-73
2022/01/16 11:07:40;;;;;;;;;81.33;62.33;;;;;;;;5079186;28;11523;-73
2022/01/16 11:10:22;;;;;;;;;71.75;57.75;;;;;;;;5090846;28;10108;-73
2022/01/16 11:12:49;;;;;;;;;84.50;64.75;;;;;;;;5088206;28;8793;-73
2022/01/16 11:15:14;;;;;;;;;85.00;67.25;;;;;;;;5093430;28;8782;-73
2022/01/16 11:17:39;;;;;;;;;85.50;67.75;;;;;;;;5093021;28;8928;-74
2022/01/16 11:20:06;;;;;;;;;94.75;79.75;;;;;;;;5092429;28;9685;-73
2022/01/16 11:22:35;;;;;;;;;108.40;101.80;;;;;;;;5092166;28;8789;-73
2022/01/16 11:25:11;;;;;;;;;112.80;108.20;;;;;;;;5088273;28;8797;-74
2022/01/16 11:27:37;;;;;;;;;126.17;122.00;;;;;;;;5089164;28;8797;-74
2022/01/16 11:30:03;;;;;;;;;141.60;138.00;;;;;;;;5087627;28;8825;-74
2022/01/16 11:32:29;;;;;;;;;161.00;159.20;;;;;;;;5089449;28;8894;-74
2022/01/16 11:34:57;;;;;;;;;177.20;172.60;;;;;;;;5087909;28;8852;-74
2022/01/16 11:37:22;;;;;;;;;151.00;147.60;;;;;;;;5088359;28;9781;-74
2022/01/16 11:39:47;;;;;;;;;177.33;176.67;;;;;;;;5092374;28;8828;-74
2022/01/16 11:42:22;;;;;;;;;158.75;156.75;;;;;;;;5091204;28;8829;-75
2022/01/16 11:44:53;;;;;;;;;160.60;158.00;;;;;;;;5086790;28;8794;-75
2022/01/16 11:47:19;;;;;;;;;195.20;193.00;;;;;;;;5085454;28;9016;-73
2022/01/16 11:49:44;;;;;;;;;165.33;164.67;;;;;;;;5080992;28;8808;-74
2022/01/16 11:52:16;;;;;;;;;188.25;184.00;;;;;;;;5081746;28;8863;-74
2022/01/16 11:54:46;;;;;;;;;164.00;159.00;;;;;;;;5086583;28;8813;-74
2022/01/16 11:57:21;;;;;;;;;123.50;117.25;;;;;;;;5091230;28;8826;-73
2022/01/16 11:59:48;;;;;;;;;130.50;126.25;;;;;;;;5083862;28;8814;-73
2022/01/16 12:02:15;;;;;;;;;104.25;93.25;;;;;;;;5077716;28;8821;-73
2022/01/16 12:04:43;;;;;;;;;140.00;136.00;;;;;;;;5084959;28;8781;-73
2022/01/16 12:07:15;;;;;;;;;147.50;144.50;;;;;;;;5092063;28;11581;-72
2022/01/16 12:09:48;;;;;;;;;179.00;176.00;;;;;;;;5091000;28;8843;-73
2022/01/16 12:12:16;;;;;;;;;173.33;171.17;;;;;;;;5090118;28;11570;-73
2022/01/16 12:14:47;;;;;;;;;169.83;167.00;;;;;;;;5092172;28;8904;-73
2022/01/16 12:17:25;;;;;;;;;184.00;181.17;;;;;;;;5085820;28;8812;-73
2022/01/16 12:19:51;;;;;;;;;165.40;164.40;;;;;;;;5091439;28;8958;-73
2022/01/16 12:22:17;;;;;;;;;167.50;165.17;;;;;;;;5092997;28;8814;-73
2022/01/16 12:24:44;;;;;;;;;196.33;195.83;;;;;;;;5082577;28;8878;-73
2022/01/16 12:27:26;;;;;;;;;166.17;164.17;;;;;;;;5093290;28;8825;-74
2022/01/16 12:30:10;;;;;;;;;166.17;166.17;;;;;;;;5084552;28;8785;-73
2022/01/16 12:32:47;;;;;;;;;169.00;165.17;;;;;;;;5093540;28;8856;-72
2022/01/16 12:35:13;;;;;;;;;160.83;157.00;;;;;;;;5091273;28;8746;-73
2022/01/16 12:37:42;;;;;;;;;163.00;160.80;;;;;;;;5089955;28;8871;-73
2022/01/16 12:40:08;;;;;;;;;175.00;173.67;;;;;;;;5093536;28;8850;-72
2022/01/16 12:42:33;;;;;;;;;185.60;182.80;;;;;;;;5082357;28;8822;-73
2022/01/16 12:44:59;;;;;;;;;180.40;175.00;;;;;;;;5091012;28;8869;-75
2022/01/16 12:47:24;;;;;;;;;154.00;147.50;;;;;;;;5084624;28;8903;-73
2022/01/16 12:49:52;;;;;;;;;156.67;155.67;;;;;;;;5087980;28;8794;-73
2022/01/16 12:52:17;;;;;;;;;135.00;135.00;;;;;;;;5091263;28;8824;-73
2022/01/16 12:54:46;;;;;;;;;163.00;161.75;;;;;;;;5082797;28;8790;-73
2022/01/16 12:57:11;;;;;;;;;176.40;173.20;;;;;;;;5092211;28;8762;-74
2022/01/16 12:59:36;;;;;;;;;182.75;180.25;;;;;;;;5081096;28;9602;-74
2022/01/16 13:02:03;;;;;;;;;156.00;154.00;;;;;;;;5092675;28;8841;-74
2022/01/16 13:04:32;;;;;;;;;160.20;159.20;;;;;;;;5092460;28;8762;-74
2022/01/16 13:06:59;;;;;;;;;198.60;197.80;;;;;;;;5092453;28;9725;-73
2022/01/16 13:09:25;;;;;;;;;201.40;200.40;;;;;;;;5087436;28;9120;-73
2022/01/16 13:11:52;;;;;;;;;196.20;195.20;;;;;;;;5092980;28;8798;-73
2022/01/16 13:14:19;;;;;;;;;167.83;163.83;;;;;;;;5081410;28;9715;-73
2022/01/16 13:16:46;;;;;;;;;152.80;149.20;;;;;;;;5092844;28;8817;-73
2022/01/16 13:19:15;;;;;;;;;132.00;130.80;;;;;;;;5094826;28;8782;-74
2022/01/16 13:21:43;;;;;;;;;125.83;121.83;;;;;;;;5093704;28;10036;-74
2022/01/16 13:24:09;;;;;;;;;111.80;107.20;;;;;;;;5094732;28;8786;-73
2022/01/16 13:26:34;;;;;;;;;124.83;120.67;;;;;;;;5092989;28;8915;-73
2022/01/16 13:29:06;;;;;;;;;112.00;106.20;;;;;;;;5094207;28;8828;-73
2022/01/16 13:31:34;;;;;;;;;107.20;100.80;;;;;;;;5092483;28;8786;-73
2022/01/16 13:34:15;;;;;;;;;106.40;98.60;;;;;;;;5093303;28;8793;-74
2022/01/16 13:36:50;;;;;;;;;97.00;80.60;;;;;;;;5092575;28;8821;-73
2022/01/16 13:39:16;;;;;;;;;79.20;62.60;;;;;;;;5094068;28;9773;-73
2022/01/16 13:41:44;;;;;;;;;97.50;82.25;;;;;;;;5094055;28;8775;-74
2022/01/16 13:44:28;;;;;;;;;98.00;81.60;;;;;;;;5092025;28;8794;-73
2022/01/16 13:46:59;;;;;;;;;85.25;67.25;;;;;;;;5083041;28;8816;-74
2022/01/16 13:49:24;;;;;;;;;92.50;76.25;;;;;;;;5094544;28;8813;-73
2022/01/16 13:51:59;;;;;;;;;91.50;72.50;;;;;;;;5093768;28;8822;-74
2022/01/16 13:54:31;;;;;;;;;93.00;74.33;;;;;;;;5094759;28;8782;-73
2022/01/16 13:57:00;;;;;;;;;86.00;70.00;;;;;;;;5093726;28;8987;-73
2022/01/16 13:59:25;;;;;;;;;88.00;68.00;;;;;;;;5094540;28;8786;-73
2022/01/16 14:01:52;;;;;;;;;92.33;74.67;;;;;;;;5094064;28;11528;-72
2022/01/16 14:04:17;;;;;;;;;89.75;72.00;;;;;;;;5094821;28;8774;-74
2022/01/16 14:06:47;;;;;;;;;91.67;75.00;;;;;;;;5094005;28;8896;-74
2022/01/16 14:09:13;;;;;;;;;84.25;66.25;;;;;;;;5094521;28;8922;-73
2022/01/16 14:11:40;;;;;;;;;75.00;61.33;;;;;;;;5093330;28;11579;-75
2022/01/16 14:14:06;;;;;;;;;79.00;62.25;;;;;;;;5094372;28;8800;-72
2022/01/16 14:17:29;;;;;;;;;92.75;76.25;;;;;;;;5094219;28;8813;-72
2022/01/16 14:22:14;;;;;;;;;86.25;70.25;;;;;;;;5094048;28;8781;-72
2022/01/16 14:24:41;;;;;;;;;81.75;66.25;;;;;;;;5093557;28;8801;-73
2022/01/16 14:27:10;;;;;;;;;88.00;69.25;;;;;;;;5092846;28;8793;-72
2022/01/16 14:29:37;;;;;;;;;93.80;73.20;;;;;;;;5093877;28;8857;-72
2022/01/16 14:32:02;;;;;;;;;88.50;71.00;;;;;;;;5093943;28;8820;-72
2022/01/16 14:34:28;;;;;;;;;100.75;84.25;;;;;;;;5093746;28;8790;-72
2022/01/16 14:36:54;;;;;;;;;86.33;71.00;;;;;;;;5085796;28;8846;-74
2022/01/16 14:39:20;;;;;;;;;84.25;67.75;;;;;;;;5093251;28;8802;-73
2022/01/16 14:41:49;;;;;;;;;97.80;84.00;;;;;;;;5092073;28;8805;-73
2022/01/16 14:44:15;;;;;;;;;95.80;80.80;;;;;;;;5084608;28;8810;-73
2022/01/16 14:46:41;;;;;;;;;97.25;81.25;;;;;;;;5092951;28;8810;-73
2022/01/16 14:49:06;;;;;;;;;99.00;87.20;;;;;;;;5084379;28;8812;-73
2022/01/16 14:51:33;;;;;;;;;98.25;85.00;;;;;;;;5091788;28;8930;-74
2022/01/16 14:53:59;;;;;;;;;95.60;74.40;;;;;;;;5091693;28;8834;-74
2022/01/16 14:56:24;;;;;;;;;111.50;108.00;;;;;;;;5091998;28;8860;-73
2022/01/16 14:58:49;;;;;;;;;98.00;84.80;;;;;;;;5093200;28;8906;-73
2022/01/16 15:01:15;;;;;;;;;95.25;78.50;;;;;;;;5092029;28;8872;-72
2022/01/16 15:03:41;;;;;;;;;106.50;99.75;;;;;;;;5091694;28;8853;-72
2022/01/16 15:06:07;;;;;;;;;111.80;101.20;;;;;;;;5093336;28;8793;-72